createdAt,value
2019-03-26T00:01:47.403Z,13.07
2019-03-26T00:04:12.953Z,15.07
2019-03-26T00:06:38.646Z,17.23
2019-03-26T00:09:05.377Z,22.83
2019-03-26T00:11:30.908Z,16.80
2019-03-26T00:13:57.835Z,20.80
2019-03-26T00:16:23.524Z,15.47
2019-03-26T00:18:49.315Z,27.33
2019-03-26T00:21:14.968Z,20.33
2019-03-26T00:23:40.477Z,15.33
2019-03-26T00:26:06.018Z,20.53
2019-03-26T00:28:31.555Z,16.03
2019-03-26T00:30:57.139Z,19.60
2019-03-26T00:33:35.415Z,19.03
2019-03-26T00:35:50.095Z,17.37
2019-03-26T00:38:15.650Z,17.00
2019-03-26T00:40:41.197Z,26.53
2019-03-26T00:43:06.720Z,23.50
2019-03-26T00:45:32.793Z,13.40
2019-03-26T00:47:58.366Z,21.17
2019-03-26T00:50:24.151Z,20.20
2019-03-26T00:52:49.877Z,18.97
2019-03-26T00:55:22.582Z,14.63
2019-03-26T00:57:43.867Z,24.70
2019-03-26T01:00:10.004Z,22.70
2019-03-26T01:02:36.543Z,19.67
2019-03-26T01:05:03.212Z,18.93
2019-03-26T01:07:28.755Z,21.73
2019-03-26T01:09:54.287Z,19.53
2019-03-26T01:12:19.820Z,19.50
2019-03-26T01:14:45.339Z,24.60
2019-03-26T01:17:10.906Z,17.07
2019-03-26T01:19:36.431Z,17.70
2019-03-26T01:22:02.225Z,16.10
2019-03-26T01:24:27.810Z,26.63
2019-03-26T01:26:53.371Z,22.10
2019-03-26T01:29:18.916Z,24.30
2019-03-26T01:31:44.512Z,24.07
2019-03-26T01:34:10.043Z,22.43
2019-03-26T01:36:35.673Z,18.27
2019-03-26T01:39:01.214Z,20.00
2019-03-26T01:41:26.743Z,19.60
2019-03-26T01:43:52.639Z,23.47
2019-03-26T01:46:18.303Z,11.00
2019-03-26T01:48:43.939Z,19.70
2019-03-26T01:51:09.684Z,24.33
2019-03-26T01:53:35.339Z,25.73
2019-03-26T01:56:00.860Z,15.57
2019-03-26T01:58:26.424Z,15.10
2019-03-26T02:00:52.011Z,28.23
2019-03-26T02:03:17.903Z,22.50
2019-03-26T02:05:43.543Z,18.07
2019-03-26T02:08:09.263Z,27.10
2019-03-26T02:10:34.986Z,23.70
2019-03-26T02:13:00.511Z,18.87
2019-03-26T02:15:26.880Z,15.93
2019-03-26T02:17:52.511Z,21.20
2019-03-26T02:20:18.171Z,18.63
2019-03-26T02:22:43.698Z,21.13
2019-03-26T02:25:09.218Z,28.77
2019-03-26T02:27:34.923Z,21.97
2019-03-26T02:30:00.471Z,20.77
2019-03-26T02:32:26.098Z,30.70
2019-03-26T02:34:51.808Z,18.13
2019-03-26T02:37:17.355Z,23.53
2019-03-26T02:39:43.980Z,29.43
2019-03-26T02:42:09.538Z,18.10
2019-03-26T02:44:35.071Z,20.83
2019-03-26T02:47:00.628Z,30.00
2019-03-26T02:49:26.261Z,26.00
2019-03-26T02:51:51.886Z,23.07
2019-03-26T02:54:17.651Z,30.77
2019-03-26T02:56:43.178Z,29.50
2019-03-26T02:59:08.725Z,25.33
2019-03-26T03:01:34.267Z,20.57
2019-03-26T03:03:59.979Z,31.43
2019-03-26T03:06:25.495Z,19.80
2019-03-26T03:08:51.019Z,19.30
2019-03-26T03:11:16.577Z,24.67
2019-03-26T03:13:42.165Z,28.23
2019-03-26T03:16:07.772Z,19.33
2019-03-26T03:18:33.461Z,17.23
2019-03-26T03:20:59.059Z,35.03
2019-03-26T03:23:24.654Z,27.70
2019-03-26T03:25:50.296Z,27.27
2019-03-26T03:28:15.914Z,24.93
2019-03-26T03:30:41.537Z,27.37
2019-03-26T03:33:07.159Z,19.23
2019-03-26T03:35:50.695Z,34.13
2019-03-26T03:38:01.152Z,31.00
2019-03-26T03:40:26.660Z,30.93
2019-03-26T03:42:52.186Z,24.37
2019-03-26T03:45:19.903Z,22.00
2019-03-26T03:47:46.654Z,19.03
2019-03-26T03:50:12.300Z,20.87
2019-03-26T03:52:37.963Z,28.90
2019-03-26T03:55:05.033Z,26.00
2019-03-26T03:57:30.670Z,27.70
2019-03-26T03:59:56.512Z,36.20
2019-03-26T04:02:22.157Z,24.20
2019-03-26T04:04:47.719Z,17.67
2019-03-26T04:07:13.276Z,25.90
2019-03-26T04:09:38.851Z,22.40
2019-03-26T04:12:04.384Z,27.30
2019-03-26T04:14:29.939Z,20.07
2019-03-26T04:16:55.701Z,33.50
2019-03-26T04:19:21.225Z,16.33
2019-03-26T04:21:46.749Z,25.13
2019-03-26T04:24:12.440Z,24.20
2019-03-26T04:26:38.032Z,17.10
2019-03-26T04:29:03.581Z,20.40
2019-03-26T04:31:29.247Z,15.57
2019-03-26T04:33:54.771Z,22.90
2019-03-26T04:36:26.062Z,22.83
2019-03-26T04:38:48.803Z,33.47
2019-03-26T04:41:14.418Z,43.60
2019-03-26T04:43:39.972Z,20.97
2019-03-26T04:46:05.517Z,28.03
2019-03-26T04:48:31.027Z,40.83
2019-03-26T04:50:56.656Z,23.53
2019-03-26T04:53:22.221Z,34.17
2019-03-26T04:55:47.757Z,24.23
2019-03-26T04:58:13.327Z,31.93
2019-03-26T05:00:38.869Z,22.60
2019-03-26T05:03:04.442Z,23.40
2019-03-26T05:05:29.960Z,22.97
2019-03-26T05:07:55.497Z,28.97
2019-03-26T05:10:21.047Z,21.60
2019-03-26T05:12:46.575Z,31.13
2019-03-26T05:15:12.332Z,13.80
2019-03-26T05:17:37.968Z,32.07
2019-03-26T05:20:04.615Z,22.93
2019-03-26T05:22:30.191Z,18.13
2019-03-26T05:24:55.752Z,23.30
2019-03-26T05:27:21.267Z,18.93
2019-03-26T05:29:46.855Z,28.30
2019-03-26T05:32:12.571Z,19.70
2019-03-26T05:34:38.139Z,25.10
2019-03-26T05:37:03.743Z,28.00
2019-03-26T05:39:29.617Z,16.73
2019-03-26T05:41:55.225Z,21.30
2019-03-26T05:44:20.769Z,24.73
2019-03-26T05:46:46.330Z,17.53
2019-03-26T05:49:11.878Z,16.67
2019-03-26T05:51:57.570Z,17.23
2019-03-26T05:54:24.222Z,16.83
2019-03-26T05:56:49.772Z,9.87
2019-03-26T05:59:15.455Z,19.20
2019-03-26T06:01:41.188Z,18.63
2019-03-26T06:04:06.863Z,13.53
2019-03-26T06:06:33.572Z,16.20
2019-03-26T06:08:59.121Z,13.00
2019-03-26T06:11:24.688Z,8.23
2019-03-26T06:13:50.281Z,12.37
2019-03-26T06:16:15.818Z,10.87
2019-03-26T06:18:41.372Z,15.37
2019-03-26T06:21:06.619Z,17.70
2019-03-26T06:23:32.559Z,12.57
2019-03-26T06:25:58.537Z,10.00
2019-03-26T06:28:26.042Z,14.83
2019-03-26T06:30:51.601Z,13.20
2019-03-26T06:33:18.352Z,14.67
2019-03-26T06:35:43.993Z,9.93
2019-03-26T06:38:09.571Z,13.13
2019-03-26T06:40:35.462Z,9.30
2019-03-26T06:43:01.256Z,12.17
2019-03-26T06:45:26.815Z,10.53
2019-03-26T06:47:53.395Z,15.40
2019-03-26T06:50:19.022Z,12.67
2019-03-26T06:52:44.576Z,16.37
2019-03-26T06:55:10.239Z,18.17
2019-03-26T06:57:36.187Z,18.47
2019-03-26T07:00:02.661Z,19.50
2019-03-26T07:02:29.323Z,17.00
2019-03-26T07:04:54.969Z,19.17
2019-03-26T07:07:31.420Z,13.70
2019-03-26T07:09:51.152Z,15.57
2019-03-26T07:12:16.888Z,16.77
2019-03-26T07:14:42.491Z,14.63
2019-03-26T07:17:08.073Z,14.70
2019-03-26T07:19:33.757Z,11.83
2019-03-26T07:21:59.482Z,27.60
2019-03-26T07:24:25.092Z,23.80
2019-03-26T07:26:50.723Z,16.03
2019-03-26T07:29:16.320Z,15.37
2019-03-26T07:31:41.969Z,14.23
2019-03-26T07:34:07.595Z,17.77
2019-03-26T07:36:33.225Z,17.73
2019-03-26T07:38:58.990Z,16.37
2019-03-26T07:41:24.577Z,16.27
2019-03-26T07:43:50.150Z,16.17
2019-03-26T07:46:15.772Z,12.47
2019-03-26T07:48:41.513Z,24.80
2019-03-26T07:51:07.127Z,13.00
2019-03-26T07:53:32.699Z,15.17
2019-03-26T07:55:58.369Z,18.53
2019-03-26T07:58:23.901Z,17.50
2019-03-26T08:00:49.683Z,23.43
2019-03-26T08:03:15.183Z,16.30
2019-03-26T08:05:40.506Z,20.83
2019-03-26T08:08:07.103Z,19.50
2019-03-26T08:10:32.927Z,13.07
2019-03-26T08:12:58.495Z,20.73
2019-03-26T08:15:24.085Z,12.40
2019-03-26T08:17:50.627Z,16.80
2019-03-26T08:20:16.152Z,21.63
2019-03-26T08:22:41.791Z,13.90
2019-03-26T08:25:07.237Z,14.03
2019-03-26T08:27:32.438Z,23.83
2019-03-26T08:29:57.951Z,17.57
2019-03-26T08:32:23.821Z,19.80
2019-03-26T08:34:49.385Z,10.63
2019-03-26T08:37:14.612Z,17.03
2019-03-26T08:39:40.438Z,15.70
2019-03-26T08:42:06.742Z,9.50
2019-03-26T08:44:32.290Z,19.07
2019-03-26T08:46:57.592Z,14.83
2019-03-26T08:49:22.774Z,11.73
2019-03-26T08:51:47.983Z,12.30
2019-03-26T08:54:13.415Z,12.40
2019-03-26T08:56:38.753Z,16.43
2019-03-26T08:59:03.964Z,9.50
2019-03-26T09:01:29.247Z,14.20
2019-03-26T09:03:54.468Z,14.03
2019-03-26T09:06:19.991Z,7.43
2019-03-26T09:08:45.606Z,12.37
2019-03-26T09:11:11.131Z,15.10
2019-03-26T09:13:36.811Z,18.77
2019-03-26T09:16:05.307Z,13.40
2019-03-26T09:18:30.902Z,14.37
2019-03-26T09:20:57.296Z,18.43
2019-03-26T09:23:23.120Z,7.70
2019-03-26T09:25:48.881Z,9.60
2019-03-26T09:28:14.822Z,6.57
2019-03-26T09:30:40.387Z,15.20
2019-03-26T09:33:05.920Z,14.87
2019-03-26T09:35:31.736Z,16.00
2019-03-26T09:37:57.483Z,14.87
2019-03-26T09:40:23.491Z,16.40
2019-03-26T09:42:49.119Z,18.50
2019-03-26T09:45:14.831Z,18.13
2019-03-26T09:47:40.485Z,13.60
2019-03-26T09:50:07.303Z,10.53
2019-03-26T09:52:32.844Z,15.77
2019-03-26T09:54:58.431Z,18.70
2019-03-26T09:57:23.992Z,15.73
2019-03-26T09:59:49.518Z,13.80
2019-03-26T10:02:15.132Z,15.43
2019-03-26T10:04:41.941Z,17.77
2019-03-26T10:07:20.548Z,15.27
2019-03-26T10:09:34.933Z,13.50
2019-03-26T10:12:01.517Z,11.00
2019-03-26T10:14:27.043Z,15.30
2019-03-26T10:16:52.674Z,9.40
2019-03-26T10:19:18.250Z,9.13
2019-03-26T10:21:43.898Z,11.70
2019-03-26T10:24:09.452Z,18.70
2019-03-26T10:26:35.050Z,16.80
2019-03-26T10:29:13.836Z,21.43
2019-03-26T10:31:28.075Z,11.40
2019-03-26T10:33:53.628Z,20.07
2019-03-26T10:36:19.233Z,22.20
2019-03-26T10:38:44.815Z,12.87
2019-03-26T10:41:13.393Z,14.80
2019-03-26T10:43:38.946Z,20.77
2019-03-26T10:46:04.470Z,9.13
2019-03-26T10:48:31.907Z,13.57
2019-03-26T10:50:57.541Z,8.93
2019-03-26T10:53:23.186Z,16.53
2019-03-26T10:55:48.803Z,14.00
2019-03-26T10:58:14.360Z,10.93
2019-03-26T11:00:41.454Z,11.20
2019-03-26T11:03:07.104Z,10.17
2019-03-26T11:05:32.651Z,8.13
2019-03-26T11:07:58.243Z,9.23
2019-03-26T11:10:24.831Z,10.70
2019-03-26T11:12:50.534Z,8.10
2019-03-26T11:15:16.106Z,9.97
2019-03-26T11:17:41.631Z,8.80
2019-03-26T11:20:08.277Z,5.33
2019-03-26T11:22:33.954Z,9.63
2019-03-26T11:24:59.483Z,13.03
2019-03-26T11:27:25.009Z,12.10
2019-03-26T11:29:50.628Z,10.57
2019-03-26T11:32:16.522Z,11.70
2019-03-26T11:34:42.154Z,10.43
2019-03-26T11:37:07.851Z,9.50
2019-03-26T11:39:33.451Z,10.73
2019-03-26T11:41:58.987Z,13.03
2019-03-26T11:44:24.566Z,10.93
2019-03-26T11:46:50.087Z,19.53
2019-03-26T11:49:15.611Z,14.83
2019-03-26T11:51:41.236Z,16.67
2019-03-26T11:54:06.760Z,17.00
2019-03-26T11:56:32.315Z,10.40
2019-03-26T11:58:57.866Z,13.60
2019-03-26T12:01:23.646Z,12.80
2019-03-26T12:03:49.351Z,15.40
2019-03-26T12:06:14.936Z,9.90
2019-03-26T12:08:40.561Z,12.47
2019-03-26T12:11:06.343Z,8.87
2019-03-26T12:13:31.884Z,12.20
2019-03-26T12:15:57.529Z,18.60
2019-03-26T12:18:23.275Z,12.33
2019-03-26T12:20:49.122Z,15.77
2019-03-26T12:23:14.745Z,9.77
2019-03-26T12:25:40.287Z,6.40
2019-03-26T12:28:05.859Z,10.37
2019-03-26T12:30:32.675Z,7.10
2019-03-26T12:32:58.434Z,6.40
2019-03-26T12:35:27.595Z,7.13
2019-03-26T12:37:53.154Z,11.63
2019-03-26T12:40:18.866Z,5.60
2019-03-26T12:42:44.732Z,6.53
2019-03-26T12:45:12.088Z,4.73
2019-03-26T12:47:38.255Z,8.60
2019-03-26T12:50:05.064Z,8.10
2019-03-26T12:52:31.729Z,8.53
2019-03-26T12:54:57.422Z,7.10
2019-03-26T12:57:23.962Z,6.63
2019-03-26T12:59:50.024Z,12.10
2019-03-26T13:02:15.772Z,3.73
2019-03-26T13:04:41.327Z,8.23
2019-03-26T13:07:06.979Z,10.53
2019-03-26T13:09:32.501Z,10.00
2019-03-26T13:11:58.050Z,7.93
2019-03-26T13:14:23.631Z,8.13
2019-03-26T13:16:49.177Z,6.13
2019-03-26T13:19:14.823Z,5.43
2019-03-26T13:21:40.710Z,7.77
2019-03-26T13:24:06.348Z,12.00
2019-03-26T13:26:31.952Z,6.57
2019-03-26T13:28:57.483Z,6.63
2019-03-26T13:31:23.034Z,10.73
2019-03-26T13:33:48.650Z,5.77
2019-03-26T13:36:14.340Z,4.10
2019-03-26T13:38:39.916Z,9.57
2019-03-26T13:41:05.547Z,8.83
2019-03-26T13:43:31.108Z,7.77
2019-03-26T13:45:56.647Z,5.97
2019-03-26T13:48:22.221Z,5.07
2019-03-26T13:50:47.773Z,8.33
2019-03-26T13:53:13.449Z,8.70
2019-03-26T13:55:39.020Z,14.00
2019-03-26T13:58:04.571Z,9.87
2019-03-26T14:00:30.908Z,13.57
2019-03-26T14:02:56.588Z,12.43
2019-03-26T14:05:23.145Z,10.60
2019-03-26T14:07:49.249Z,9.80
2019-03-26T14:10:14.963Z,10.80
2019-03-26T14:12:40.623Z,14.83
2019-03-26T14:15:06.520Z,11.57
2019-03-26T14:17:32.104Z,7.80
2019-03-26T14:19:57.685Z,12.10
2019-03-26T14:22:23.244Z,10.30
2019-03-26T14:24:48.843Z,9.03
2019-03-26T14:27:14.438Z,16.03
2019-03-26T14:29:40.020Z,10.97
2019-03-26T14:32:05.644Z,7.40
2019-03-26T14:34:31.487Z,6.33
2019-03-26T14:36:57.035Z,8.00
2019-03-26T14:39:22.846Z,6.83
2019-03-26T14:41:48.405Z,10.10
2019-03-26T14:44:13.963Z,9.20
2019-03-26T14:46:39.516Z,5.47
2019-03-26T14:49:24.329Z,11.07
2019-03-26T14:51:56.851Z,11.33
2019-03-26T14:54:25.372Z,12.40
2019-03-26T14:56:50.907Z,11.33
2019-03-26T14:59:16.741Z,17.90
2019-03-26T15:01:42.316Z,15.33
2019-03-26T15:04:08.583Z,12.23
2019-03-26T15:06:34.844Z,10.10
2019-03-26T15:09:01.344Z,10.60
2019-03-26T15:11:28.783Z,10.63
2019-03-26T15:13:54.429Z,17.20
2019-03-26T15:16:25.852Z,9.17
2019-03-26T15:18:52.500Z,6.80
2019-03-26T15:21:19.912Z,13.40
2019-03-26T15:23:45.576Z,10.20
2019-03-26T15:26:11.125Z,7.50
2019-03-26T15:28:36.679Z,6.57
2019-03-26T15:31:02.665Z,7.73
2019-03-26T15:33:28.380Z,4.93
2019-03-26T15:35:53.937Z,7.93
2019-03-26T15:38:19.776Z,5.00
2019-03-26T15:40:45.312Z,5.53
2019-03-26T15:43:11.079Z,2.87
2019-03-26T15:45:36.627Z,3.27
2019-03-26T15:48:02.782Z,3.43
2019-03-26T15:50:35.240Z,4.50
2019-03-26T15:53:01.112Z,6.80
2019-03-26T15:55:26.773Z,5.13
2019-03-26T15:57:52.365Z,5.77
2019-03-26T16:00:21.285Z,2.80
2019-03-26T16:02:46.842Z,5.93
2019-03-26T16:05:13.405Z,6.93
2019-03-26T16:07:38.988Z,5.10
2019-03-26T16:10:05.410Z,2.13
2019-03-26T16:12:40.883Z,3.23
2019-03-26T16:15:00.453Z,11.97
2019-03-26T16:17:25.979Z,8.03
2019-03-26T16:19:51.783Z,5.67
2019-03-26T16:22:17.962Z,4.80
2019-03-26T16:24:43.704Z,6.70
2019-03-26T16:27:09.325Z,7.57
2019-03-26T16:29:35.216Z,7.17
2019-03-26T16:32:00.797Z,4.10
2019-03-26T16:34:26.356Z,4.03
2019-03-26T16:36:59.271Z,6.30
2019-03-26T16:39:19.344Z,2.97
2019-03-26T16:41:49.404Z,4.87
2019-03-26T16:44:12.700Z,5.87
2019-03-26T16:46:38.233Z,4.50
2019-03-26T16:49:05.808Z,4.53
2019-03-26T16:51:31.742Z,3.80
2019-03-26T16:54:07.407Z,2.10
2019-03-26T16:56:35.496Z,5.97
2019-03-26T16:59:01.185Z,4.37
2019-03-26T17:01:26.907Z,11.80
2019-03-26T17:03:52.580Z,6.50
2019-03-26T17:06:18.324Z,6.63
2019-03-26T17:08:43.940Z,10.93
2019-03-26T17:11:09.717Z,5.20
2019-03-26T17:13:35.515Z,9.30
2019-03-26T17:16:01.050Z,7.73
2019-03-26T17:18:27.907Z,7.90
2019-03-26T17:20:54.599Z,11.13
2019-03-26T17:23:20.336Z,10.80
2019-03-26T17:25:46.099Z,10.83
2019-03-26T17:28:11.972Z,12.13
2019-03-26T17:30:37.686Z,11.83
2019-03-26T17:33:03.510Z,10.80
2019-03-26T17:35:29.108Z,11.10
2019-03-26T17:37:59.848Z,3.80
2019-03-26T17:40:22.446Z,8.60
2019-03-26T17:42:47.963Z,6.83
2019-03-26T17:45:13.621Z,8.23
2019-03-26T17:47:39.270Z,5.40
2019-03-26T17:50:05.563Z,8.83
2019-03-26T17:52:31.233Z,7.43
2019-03-26T17:54:56.983Z,5.67
2019-03-26T17:57:22.560Z,5.97
2019-03-26T17:59:48.173Z,5.33
2019-03-26T18:02:13.931Z,5.90
2019-03-26T18:04:39.655Z,4.20
2019-03-26T18:07:05.628Z,6.70
2019-03-26T18:09:31.327Z,12.47
2019-03-26T18:11:57.044Z,15.20
2019-03-26T18:14:22.647Z,13.27
2019-03-26T18:16:48.174Z,13.60
2019-03-26T18:19:13.971Z,16.10
2019-03-26T18:21:50.851Z,9.80
2019-03-26T18:24:07.275Z,18.07
2019-03-26T18:26:33.813Z,10.43
2019-03-26T18:28:59.764Z,8.67
2019-03-26T18:31:27.788Z,17.07
2019-03-26T18:33:53.411Z,20.33
2019-03-26T18:36:18.956Z,15.60
2019-03-26T18:38:44.497Z,10.80
2019-03-26T18:41:10.021Z,10.67
2019-03-26T18:43:35.615Z,16.67
2019-03-26T18:46:01.138Z,19.30
2019-03-26T18:48:26.707Z,17.40
2019-03-26T18:50:52.636Z,21.67
2019-03-26T18:53:18.191Z,15.23
2019-03-26T18:55:43.794Z,17.50
2019-03-26T18:58:09.380Z,14.20
2019-03-26T19:00:35.924Z,17.40
2019-03-26T19:03:01.723Z,16.70
2019-03-26T19:05:27.251Z,19.00
2019-03-26T19:07:52.951Z,22.80
2019-03-26T19:10:30.821Z,22.13
2019-03-26T19:12:57.295Z,31.33
2019-03-26T19:15:23.189Z,27.90
2019-03-26T19:17:48.845Z,28.47
2019-03-26T19:20:14.743Z,36.63
2019-03-26T19:22:40.304Z,23.03
2019-03-26T19:25:06.067Z,32.33
2019-03-26T19:27:31.613Z,39.20
2019-03-26T19:29:57.171Z,29.50
2019-03-26T19:32:22.728Z,25.93
2019-03-26T19:34:48.366Z,34.80
2019-03-26T19:37:13.890Z,29.07
2019-03-26T19:39:40.291Z,32.67
2019-03-26T19:42:05.947Z,31.70
2019-03-26T19:44:31.598Z,31.33
2019-03-26T19:46:57.272Z,34.63
2019-03-26T19:49:22.818Z,33.13
2019-03-26T19:51:48.354Z,39.50
2019-03-26T19:54:13.937Z,32.03
2019-03-26T19:56:39.492Z,36.00
2019-03-26T19:59:05.121Z,36.80
2019-03-26T20:01:30.711Z,29.67
2019-03-26T20:03:56.325Z,39.77
2019-03-26T20:06:21.848Z,29.07
2019-03-26T20:08:47.412Z,33.10
2019-03-26T20:11:15.303Z,22.60
2019-03-26T20:13:40.417Z,26.13
2019-03-26T20:16:08.080Z,32.07
2019-03-26T20:18:34.674Z,29.03
2019-03-26T20:21:00.510Z,21.07
2019-03-26T20:23:26.059Z,23.30
2019-03-26T20:25:51.623Z,26.30
2019-03-26T20:28:18.139Z,29.43
2019-03-26T20:30:43.835Z,34.20
2019-03-26T20:33:10.944Z,24.90
2019-03-26T20:35:36.706Z,17.23
2019-03-26T20:38:02.316Z,33.87
2019-03-26T20:40:27.871Z,33.60
2019-03-26T20:42:53.497Z,23.73
2019-03-26T20:45:19.069Z,31.07
2019-03-26T20:47:44.807Z,43.03
2019-03-26T20:50:11.987Z,28.20
2019-03-26T20:52:37.526Z,26.80
2019-03-26T20:55:06.725Z,28.33
2019-03-26T20:57:32.424Z,23.93
2019-03-26T20:59:57.959Z,41.20
2019-03-26T21:02:23.680Z,32.23
2019-03-26T21:04:49.247Z,26.13
2019-03-26T21:07:14.781Z,35.07
2019-03-26T21:09:40.307Z,30.30
2019-03-26T21:12:05.904Z,28.70
2019-03-26T21:14:31.575Z,31.70
2019-03-26T21:16:57.109Z,25.00
2019-03-26T21:19:23.101Z,31.53
2019-03-26T21:21:48.759Z,30.73
2019-03-26T21:24:14.302Z,29.60
2019-03-26T21:26:40.018Z,29.10
2019-03-26T21:29:05.556Z,31.80
2019-03-26T21:31:31.132Z,30.87
2019-03-26T21:33:56.761Z,28.27
2019-03-26T21:36:22.315Z,25.63
2019-03-26T21:38:48.675Z,30.70
2019-03-26T21:41:14.466Z,27.77
2019-03-26T21:43:40.039Z,37.90
2019-03-26T21:46:05.611Z,37.83
2019-03-26T21:48:31.121Z,29.33
2019-03-26T21:50:56.816Z,42.03
2019-03-26T21:53:22.541Z,31.80
2019-03-26T21:55:48.294Z,31.47
2019-03-26T21:58:14.221Z,28.70
2019-03-26T22:00:39.738Z,27.90
2019-03-26T22:03:05.326Z,25.20
2019-03-26T22:05:33.727Z,21.33
2019-03-26T22:07:59.332Z,26.80
2019-03-26T22:10:24.864Z,26.97
2019-03-26T22:12:51.450Z,25.63
2019-03-26T22:15:16.990Z,19.27
2019-03-26T22:17:42.797Z,26.77
2019-03-26T22:20:09.088Z,23.00
2019-03-26T22:22:34.872Z,20.80
2019-03-26T22:25:00.643Z,17.07
2019-03-26T22:27:26.176Z,22.00
2019-03-26T22:29:51.742Z,22.90
2019-03-26T22:32:17.303Z,17.50
2019-03-26T22:34:42.868Z,25.77
2019-03-26T22:37:08.421Z,30.33
2019-03-26T22:39:35.286Z,29.83
2019-03-26T22:42:00.830Z,15.00
2019-03-26T22:44:31.557Z,29.00
2019-03-26T22:46:53.948Z,18.80
2019-03-26T22:49:19.561Z,19.70
2019-03-26T22:51:45.111Z,30.40
2019-03-26T22:54:10.738Z,17.03
2019-03-26T22:56:36.360Z,28.20
2019-03-26T22:59:01.930Z,31.43
2019-03-26T23:01:27.680Z,19.33
2019-03-26T23:03:53.238Z,27.87
2019-03-26T23:06:18.779Z,29.10
2019-03-26T23:08:44.359Z,19.40
2019-03-26T23:11:10.177Z,21.73
2019-03-26T23:13:35.864Z,22.10
2019-03-26T23:16:01.702Z,19.07
2019-03-26T23:18:27.284Z,21.67
2019-03-26T23:20:52.987Z,23.17
2019-03-26T23:23:18.603Z,13.70
2019-03-26T23:25:44.129Z,16.53
2019-03-26T23:28:09.717Z,16.50
2019-03-26T23:30:35.240Z,18.80
2019-03-26T23:33:01.562Z,18.33
2019-03-26T23:35:29.381Z,25.30
2019-03-26T23:37:54.896Z,17.70
2019-03-26T23:40:20.450Z,21.70
2019-03-26T23:42:45.991Z,21.33
2019-03-26T23:45:11.610Z,18.83
2019-03-26T23:47:37.298Z,24.60
2019-03-26T23:50:06.805Z,18.90
2019-03-26T23:52:33.355Z,20.03
2019-03-26T23:54:59.141Z,28.33
2019-03-26T23:57:24.647Z,25.63
2019-03-26T23:59:50.379Z,20.67
